sensor_id;sensor_type;location;lat;lon;timestamp;P1;durP1;ratioP1;P2;durP2;ratioP2
2438;SDS011;14509;47.992;7.848;2023-02-01T00:00:51;5.50;;;4.68;;
2438;SDS011;14509;47.992;7.848;2023-02-01T00:02:54;5.90;;;4.57;;
2438;SDS011;14509;47.992;7.848;2023-02-01T00:04:56;6.53;;;4.50;;
2438;SDS011;14509;47.992;7.848;2023-02-01T00:06:58;6.13;;;4.68;;
2438;SDS011;14509;47.992;7.848;2023-02-01T00:09:01;5.15;;;4.50;;
2438;SDS011;14509;47.992;7.848;2023-02-01T00:11:05;6.37;;;5.10;;
2438;SDS011;14509;47.992;7.848;2023-02-01T00:13:07;7.05;;;5.03;;
2438;SDS011;14509;47.992;7.848;2023-02-01T00:15:10;7.33;;;5.60;;
2438;SDS011;14509;47.992;7.848;2023-02-01T00:17:12;5.03;;;4.53;;
2438;SDS011;14509;47.992;7.848;2023-02-01T00:19:15;5.85;;;5.00;;
2438;SDS011;14509;47.992;7.848;2023-02-01T00:21:18;5.20;;;4.07;;
2438;SDS011;14509;47.992;7.848;2023-02-01T00:23:21;5.10;;;4.40;;
2438;SDS011;14509;47.992;7.848;2023-02-01T00:25:23;6.20;;;4.40;;
2438;SDS011;14509;47.992;7.848;2023-02-01T00:27:25;5.93;;;4.60;;
2438;SDS011;14509;47.992;7.848;2023-02-01T00:29:27;5.70;;;4.30;;
2438;SDS011;14509;47.992;7.848;2023-02-01T00:31:29;7.15;;;4.43;;
2438;SDS011;14509;47.992;7.848;2023-02-01T00:33:31;5.03;;;4.43;;
2438;SDS011;14509;47.992;7.848;2023-02-01T00:35:36;4.68;;;4.25;;
2438;SDS011;14509;47.992;7.848;2023-02-01T00:37:38;5.50;;;4.38;;
2438;SDS011;14509;47.992;7.848;2023-02-01T00:39:39;6.47;;;4.60;;
2438;SDS011;14509;47.992;7.848;2023-02-01T00:41:42;4.33;;;3.93;;
2438;SDS011;14509;47.992;7.848;2023-02-01T00:43:45;5.47;;;3.60;;
2438;SDS011;14509;47.992;7.848;2023-02-01T00:45:47;5.55;;;3.85;;
2438;SDS011;14509;47.992;7.848;2023-02-01T00:47:49;5.80;;;3.80;;
2438;SDS011;14509;47.992;7.848;2023-02-01T00:49:51;4.00;;;3.60;;
2438;SDS011;14509;47.992;7.848;2023-02-01T00:51:54;5.55;;;4.00;;
2438;SDS011;14509;47.992;7.848;2023-02-01T00:53:57;5.25;;;4.03;;
2438;SDS011;14509;47.992;7.848;2023-02-01T00:55:59;5.30;;;4.57;;
2438;SDS011;14509;47.992;7.848;2023-02-01T00:58:01;4.85;;;3.70;;
2438;SDS011;14509;47.992;7.848;2023-02-01T01:00:03;5.00;;;3.90;;
2438;SDS011;14509;47.992;7.848;2023-02-01T01:02:06;5.65;;;4.40;;
2438;SDS011;14509;47.992;7.848;2023-02-01T01:04:08;4.13;;;3.72;;
2438;SDS011;14509;47.992;7.848;2023-02-01T01:06:11;4.75;;;3.60;;
2438;SDS011;14509;47.992;7.848;2023-02-01T01:08:16;5.00;;;4.20;;
2438;SDS011;14509;47.992;7.848;2023-02-01T01:10:18;4.30;;;3.60;;
2438;SDS011;14509;47.992;7.848;2023-02-01T01:12:20;5.18;;;3.70;;
2438;SDS011;14509;47.992;7.848;2023-02-01T01:14:21;4.78;;;3.67;;
2438;SDS011;14509;47.992;7.848;2023-02-01T01:16:25;8.50;;;3.72;;
2438;SDS011;14509;47.992;7.848;2023-02-01T01:18:30;5.17;;;4.03;;
2438;SDS011;14509;47.992;7.848;2023-02-01T01:20:33;4.45;;;3.80;;
2438;SDS011;14509;47.992;7.848;2023-02-01T01:22:36;4.80;;;3.60;;
2438;SDS011;14509;47.992;7.848;2023-02-01T01:24:39;5.20;;;3.97;;
2438;SDS011;14509;47.992;7.848;2023-02-01T01:26:41;5.10;;;3.50;;
2438;SDS011;14509;47.992;7.848;2023-02-01T01:28:43;4.97;;;4.13;;
2438;SDS011;14509;47.992;7.848;2023-02-01T01:30:45;4.07;;;3.65;;
2438;SDS011;14509;47.992;7.848;2023-02-01T01:32:47;5.63;;;4.30;;
2438;SDS011;14509;47.992;7.848;2023-02-01T01:34:50;5.32;;;4.30;;
2438;SDS011;14509;47.992;7.848;2023-02-01T01:36:52;3.42;;;3.10;;
2438;SDS011;14509;47.992;7.848;2023-02-01T01:38:54;5.53;;;3.92;;
2438;SDS011;14509;47.992;7.848;2023-02-01T01:40:57;6.72;;;4.30;;
2438;SDS011;14509;47.992;7.848;2023-02-01T01:42:59;6.65;;;4.32;;
2438;SDS011;14509;47.992;7.848;2023-02-01T01:45:03;5.88;;;4.20;;
2438;SDS011;14509;47.992;7.848;2023-02-01T01:47:07;4.30;;;3.67;;
2438;SDS011;14509;47.992;7.848;2023-02-01T01:49:11;7.10;;;4.10;;
2438;SDS011;14509;47.992;7.848;2023-02-01T01:51:17;6.00;;;4.20;;
2438;SDS011;14509;47.992;7.848;2023-02-01T01:53:22;6.10;;;4.10;;
2438;SDS011;14509;47.992;7.848;2023-02-01T01:55:27;5.47;;;3.80;;
2438;SDS011;14509;47.992;7.848;2023-02-01T01:57:34;4.47;;;4.07;;
2438;SDS011;14509;47.992;7.848;2023-02-01T01:59:39;6.10;;;4.23;;
2438;SDS011;14509;47.992;7.848;2023-02-01T02:01:44;6.72;;;3.80;;
2438;SDS011;14509;47.992;7.848;2023-02-01T02:03:47;5.95;;;3.70;;
2438;SDS011;14509;47.992;7.848;2023-02-01T02:05:50;6.68;;;4.10;;
2438;SDS011;14509;47.992;7.848;2023-02-01T02:07:53;3.88;;;3.35;;
2438;SDS011;14509;47.992;7.848;2023-02-01T02:10:00;4.82;;;3.90;;
2438;SDS011;14509;47.992;7.848;2023-02-01T02:12:03;6.50;;;3.50;;
2438;SDS011;14509;47.992;7.848;2023-02-01T02:14:07;4.30;;;3.57;;
2438;SDS011;14509;47.992;7.848;2023-02-01T02:16:19;5.18;;;3.50;;
2438;SDS011;14509;47.992;7.848;2023-02-01T02:18:30;5.82;;;3.83;;
2438;SDS011;14509;47.992;7.848;2023-02-01T02:20:53;4.50;;;3.60;;
2438;SDS011;14509;47.992;7.848;2023-02-01T02:26:05;4.28;;;3.40;;
2438;SDS011;14509;47.992;7.848;2023-02-01T02:28:32;4.60;;;3.50;;
2438;SDS011;14509;47.992;7.848;2023-02-01T02:35:59;5.60;;;3.20;;
2438;SDS011;14509;47.992;7.848;2023-02-01T02:38:09;4.10;;;2.92;;
2438;SDS011;14509;47.992;7.848;2023-02-01T02:40:18;3.97;;;3.25;;
2438;SDS011;14509;47.992;7.848;2023-02-01T02:42:27;5.57;;;3.20;;
2438;SDS011;14509;47.992;7.848;2023-02-01T02:44:54;4.60;;;3.60;;
2438;SDS011;14509;47.992;7.848;2023-02-01T02:47:21;4.45;;;3.30;;
2438;SDS011;14509;47.992;7.848;2023-02-01T02:49:33;4.88;;;3.10;;
2438;SDS011;14509;47.992;7.848;2023-02-01T02:51:39;5.68;;;3.10;;
2438;SDS011;14509;47.992;7.848;2023-02-01T02:54:05;3.53;;;3.05;;
2438;SDS011;14509;47.992;7.848;2023-02-01T02:56:26;5.00;;;3.33;;
2438;SDS011;14509;47.992;7.848;2023-02-01T02:58:47;4.90;;;3.35;;
2438;SDS011;14509;47.992;7.848;2023-02-01T03:01:07;5.07;;;3.05;;
2438;SDS011;14509;47.992;7.848;2023-02-01T03:03:27;4.72;;;3.15;;
2438;SDS011;14509;47.992;7.848;2023-02-01T03:05:48;7.43;;;3.83;;
2438;SDS011;14509;47.992;7.848;2023-02-01T03:08:02;4.45;;;3.22;;
2438;SDS011;14509;47.992;7.848;2023-02-01T03:10:06;3.97;;;3.10;;
2438;SDS011;14509;47.992;7.848;2023-02-01T03:12:12;4.10;;;3.03;;
2438;SDS011;14509;47.992;7.848;2023-02-01T03:14:34;4.95;;;3.42;;
2438;SDS011;14509;47.992;7.848;2023-02-01T03:16:39;3.83;;;2.90;;
2438;SDS011;14509;47.992;7.848;2023-02-01T03:18:46;4.03;;;2.90;;
2438;SDS011;14509;47.992;7.848;2023-02-01T03:20:55;5.93;;;3.60;;
2438;SDS011;14509;47.992;7.848;2023-02-01T03:22:59;4.30;;;3.30;;
2438;SDS011;14509;47.992;7.848;2023-02-01T03:25:02;5.10;;;3.17;;
2438;SDS011;14509;47.992;7.848;2023-02-01T03:27:09;4.25;;;2.97;;
2438;SDS011;14509;47.992;7.848;2023-02-01T03:29:16;4.80;;;3.30;;
2438;SDS011;14509;47.992;7.848;2023-02-01T03:31:21;3.70;;;3.03;;
2438;SDS011;14509;47.992;7.848;2023-02-01T03:33:24;4.38;;;3.50;;
2438;SDS011;14509;47.992;7.848;2023-02-01T03:35:30;6.07;;;4.38;;
2438;SDS011;14509;47.992;7.848;2023-02-01T03:37:38;5.78;;;4.15;;
2438;SDS011;14509;47.992;7.848;2023-02-01T03:39:41;5.80;;;3.97;;
2438;SDS011;14509;47.992;7.848;2023-02-01T03:41:50;5.38;;;3.90;;
2438;SDS011;14509;47.992;7.848;2023-02-01T03:43:55;7.03;;;4.18;;
2438;SDS011;14509;47.992;7.848;2023-02-01T03:46:03;4.80;;;3.60;;
2438;SDS011;14509;47.992;7.848;2023-02-01T03:48:11;5.68;;;4.38;;
2438;SDS011;14509;47.992;7.848;2023-02-01T03:50:16;6.50;;;4.18;;
2438;SDS011;14509;47.992;7.848;2023-02-01T03:52:20;5.77;;;4.00;;
2438;SDS011;14509;47.992;7.848;2023-02-01T03:54:28;6.38;;;4.60;;
2438;SDS011;14509;47.992;7.848;2023-02-01T03:56:31;6.15;;;3.90;;
2438;SDS011;14509;47.992;7.848;2023-02-01T03:58:38;5.55;;;4.30;;
2438;SDS011;14509;47.992;7.848;2023-02-01T04:00:40;5.57;;;4.38;;
2438;SDS011;14509;47.992;7.848;2023-02-01T04:02:45;6.20;;;4.40;;
2438;SDS011;14509;47.992;7.848;2023-02-01T04:04:47;7.72;;;4.90;;
2438;SDS011;14509;47.992;7.848;2023-02-01T04:06:51;5.88;;;4.30;;
2438;SDS011;14509;47.992;7.848;2023-02-01T04:08:54;8.48;;;4.50;;
2438;SDS011;14509;47.992;7.848;2023-02-01T04:10:57;6.50;;;5.00;;
2438;SDS011;14509;47.992;7.848;2023-02-01T04:12:59;5.15;;;4.10;;
2438;SDS011;14509;47.992;7.848;2023-02-01T04:15:01;6.25;;;5.13;;
2438;SDS011;14509;47.992;7.848;2023-02-01T04:17:03;5.90;;;4.20;;
2438;SDS011;14509;47.992;7.848;2023-02-01T04:19:05;7.90;;;4.90;;
2438;SDS011;14509;47.992;7.848;2023-02-01T04:21:07;6.77;;;4.60;;
2438;SDS011;14509;47.992;7.848;2023-02-01T04:23:08;5.90;;;4.90;;
2438;SDS011;14509;47.992;7.848;2023-02-01T04:25:10;6.70;;;4.68;;
2438;SDS011;14509;47.992;7.848;2023-02-01T04:27:13;8.50;;;5.40;;
2438;SDS011;14509;47.992;7.848;2023-02-01T04:29:16;6.40;;;4.80;;
2438;SDS011;14509;47.992;7.848;2023-02-01T04:31:18;6.90;;;5.20;;
2438;SDS011;14509;47.992;7.848;2023-02-01T04:33:25;6.47;;;4.30;;
2438;SDS011;14509;47.992;7.848;2023-02-01T04:35:27;8.00;;;4.95;;
2438;SDS011;14509;47.992;7.848;2023-02-01T04:37:28;5.90;;;4.50;;
2438;SDS011;14509;47.992;7.848;2023-02-01T04:39:30;6.23;;;5.00;;
2438;SDS011;14509;47.992;7.848;2023-02-01T04:41:32;6.78;;;5.00;;
2438;SDS011;14509;47.992;7.848;2023-02-01T04:43:35;6.55;;;4.60;;
2438;SDS011;14509;47.992;7.848;2023-02-01T04:45:37;6.85;;;4.93;;
2438;SDS011;14509;47.992;7.848;2023-02-01T04:47:39;5.97;;;4.63;;
2438;SDS011;14509;47.992;7.848;2023-02-01T04:49:41;8.00;;;5.22;;
2438;SDS011;14509;47.992;7.848;2023-02-01T04:51:43;8.13;;;4.95;;
2438;SDS011;14509;47.992;7.848;2023-02-01T04:53:45;6.50;;;4.20;;
2438;SDS011;14509;47.992;7.848;2023-02-01T04:55:47;6.70;;;4.10;;
2438;SDS011;14509;47.992;7.848;2023-02-01T04:57:50;6.72;;;4.28;;
2438;SDS011;14509;47.992;7.848;2023-02-01T04:59:53;5.78;;;4.53;;
2438;SDS011;14509;47.992;7.848;2023-02-01T05:01:55;5.95;;;4.00;;
2438;SDS011;14509;47.992;7.848;2023-02-01T05:03:56;6.25;;;4.00;;
2438;SDS011;14509;47.992;7.848;2023-02-01T05:05:58;5.95;;;3.40;;
2438;SDS011;14509;47.992;7.848;2023-02-01T05:08:00;6.00;;;3.80;;
2438;SDS011;14509;47.992;7.848;2023-02-01T05:10:02;5.17;;;3.80;;
2438;SDS011;14509;47.992;7.848;2023-02-01T05:12:05;7.15;;;4.18;;
2438;SDS011;14509;47.992;7.848;2023-02-01T05:14:24;4.43;;;3.40;;
2438;SDS011;14509;47.992;7.848;2023-02-01T05:16:27;6.88;;;3.92;;
2438;SDS011;14509;47.992;7.848;2023-02-01T05:18:29;5.40;;;3.40;;
2438;SDS011;14509;47.992;7.848;2023-02-01T05:20:31;5.47;;;3.92;;
2438;SDS011;14509;47.992;7.848;2023-02-01T05:22:33;6.53;;;3.90;;
2438;SDS011;14509;47.992;7.848;2023-02-01T05:24:35;4.95;;;3.85;;
2438;SDS011;14509;47.992;7.848;2023-02-01T05:26:37;4.50;;;3.53;;
2438;SDS011;14509;47.992;7.848;2023-02-01T05:28:39;4.82;;;3.55;;
2438;SDS011;14509;47.992;7.848;2023-02-01T05:30:41;5.53;;;3.80;;
2438;SDS011;14509;47.992;7.848;2023-02-01T05:32:44;5.00;;;3.83;;
2438;SDS011;14509;47.992;7.848;2023-02-01T05:34:46;3.50;;;3.10;;
2438;SDS011;14509;47.992;7.848;2023-02-01T05:36:48;5.30;;;3.40;;
2438;SDS011;14509;47.992;7.848;2023-02-01T05:38:49;4.93;;;3.80;;
2438;SDS011;14509;47.992;7.848;2023-02-01T05:40:51;5.57;;;4.28;;
2438;SDS011;14509;47.992;7.848;2023-02-01T05:42:53;5.22;;;4.00;;
2438;SDS011;14509;47.992;7.848;2023-02-01T05:44:55;6.35;;;4.18;;
2438;SDS011;14509;47.992;7.848;2023-02-01T05:46:57;6.15;;;3.60;;
2438;SDS011;14509;47.992;7.848;2023-02-01T05:49:00;4.20;;;3.33;;
2438;SDS011;14509;47.992;7.848;2023-02-01T05:51:02;4.65;;;3.60;;
2438;SDS011;14509;47.992;7.848;2023-02-01T05:53:04;4.93;;;3.72;;
2438;SDS011;14509;47.992;7.848;2023-02-01T05:55:06;5.15;;;3.90;;
2438;SDS011;14509;47.992;7.848;2023-02-01T05:57:08;5.40;;;4.00;;
2438;SDS011;14509;47.992;7.848;2023-02-01T05:59:10;5.30;;;3.50;;
2438;SDS011;14509;47.992;7.848;2023-02-01T06:01:12;3.70;;;3.30;;
2438;SDS011;14509;47.992;7.848;2023-02-01T06:03:14;4.95;;;3.47;;
2438;SDS011;14509;47.992;7.848;2023-02-01T06:05:17;6.03;;;4.13;;
2438;SDS011;14509;47.992;7.848;2023-02-01T06:07:19;4.20;;;3.27;;
2438;SDS011;14509;47.992;7.848;2023-02-01T06:09:22;5.30;;;4.10;;
2438;SDS011;14509;47.992;7.848;2023-02-01T06:11:24;6.47;;;3.47;;
2438;SDS011;14509;47.992;7.848;2023-02-01T06:13:25;5.77;;;3.10;;
2438;SDS011;14509;47.992;7.848;2023-02-01T06:15:27;3.85;;;3.13;;
2438;SDS011;14509;47.992;7.848;2023-02-01T06:17:29;5.22;;;3.50;;
2438;SDS011;14509;47.992;7.848;2023-02-01T06:19:31;3.55;;;3.03;;
2438;SDS011;14509;47.992;7.848;2023-02-01T06:21:35;4.43;;;3.60;;
2438;SDS011;14509;47.992;7.848;2023-02-01T06:23:37;5.43;;;3.00;;
2438;SDS011;14509;47.992;7.848;2023-02-01T06:25:40;3.42;;;2.90;;
2438;SDS011;14509;47.992;7.848;2023-02-01T06:27:42;4.97;;;2.77;;
2438;SDS011;14509;47.992;7.848;2023-02-01T06:29:44;4.50;;;2.97;;
2438;SDS011;14509;47.992;7.848;2023-02-01T06:31:46;4.40;;;2.75;;
2438;SDS011;14509;47.992;7.848;2023-02-01T06:33:48;4.63;;;2.72;;
2438;SDS011;14509;47.992;7.848;2023-02-01T06:35:56;3.45;;;2.50;;
2438;SDS011;14509;47.992;7.848;2023-02-01T06:37:59;3.83;;;2.60;;
2438;SDS011;14509;47.992;7.848;2023-02-01T06:40:01;3.22;;;2.50;;
2438;SDS011;14509;47.992;7.848;2023-02-01T06:42:03;4.65;;;2.65;;
2438;SDS011;14509;47.992;7.848;2023-02-01T06:44:05;3.60;;;2.50;;
2438;SDS011;14509;47.992;7.848;2023-02-01T06:46:08;4.30;;;2.70;;
2438;SDS011;14509;47.992;7.848;2023-02-01T06:48:12;4.75;;;2.83;;
2438;SDS011;14509;47.992;7.848;2023-02-01T06:50:14;5.10;;;2.50;;
2438;SDS011;14509;47.992;7.848;2023-02-01T06:52:17;3.63;;;2.83;;
2438;SDS011;14509;47.992;7.848;2023-02-01T06:54:20;3.20;;;2.30;;
2438;SDS011;14509;47.992;7.848;2023-02-01T06:56:22;2.53;;;2.00;;
2438;SDS011;14509;47.992;7.848;2023-02-01T06:58:27;5.78;;;2.50;;
2438;SDS011;14509;47.992;7.848;2023-02-01T07:00:30;3.22;;;2.17;;
2438;SDS011;14509;47.992;7.848;2023-02-01T07:02:32;2.65;;;1.90;;
2438;SDS011;14509;47.992;7.848;2023-02-01T07:04:33;2.42;;;1.90;;
2438;SDS011;14509;47.992;7.848;2023-02-01T07:06:35;3.00;;;2.00;;
2438;SDS011;14509;47.992;7.848;2023-02-01T07:08:37;3.85;;;2.05;;
2438;SDS011;14509;47.992;7.848;2023-02-01T07:10:40;7.75;;;3.60;;
2438;SDS011;14509;47.992;7.848;2023-02-01T07:12:42;3.65;;;1.92;;
2438;SDS011;14509;47.992;7.848;2023-02-01T07:14:45;2.55;;;1.85;;
2438;SDS011;14509;47.992;7.848;2023-02-01T07:16:46;2.90;;;2.10;;
2438;SDS011;14509;47.992;7.848;2023-02-01T07:18:49;2.30;;;1.90;;
2438;SDS011;14509;47.992;7.848;2023-02-01T07:20:52;3.92;;;2.05;;
2438;SDS011;14509;47.992;7.848;2023-02-01T07:22:54;2.95;;;1.70;;
2438;SDS011;14509;47.992;7.848;2023-02-01T07:24:57;2.85;;;2.38;;
2438;SDS011;14509;47.992;7.848;2023-02-01T07:27:00;2.47;;;1.80;;
2438;SDS011;14509;47.992;7.848;2023-02-01T07:29:02;3.20;;;1.70;;
2438;SDS011;14509;47.992;7.848;2023-02-01T07:31:04;3.92;;;1.95;;
2438;SDS011;14509;47.992;7.848;2023-02-01T07:33:07;2.40;;;2.08;;
2438;SDS011;14509;47.992;7.848;2023-02-01T07:35:09;3.00;;;1.90;;
2438;SDS011;14509;47.992;7.848;2023-02-01T07:37:10;2.95;;;2.05;;
2438;SDS011;14509;47.992;7.848;2023-02-01T07:39:12;3.35;;;2.03;;
2438;SDS011;14509;47.992;7.848;2023-02-01T07:41:15;4.17;;;2.30;;
2438;SDS011;14509;47.992;7.848;2023-02-01T07:43:19;2.90;;;2.60;;
2438;SDS011;14509;47.992;7.848;2023-02-01T07:45:20;3.38;;;2.60;;
2438;SDS011;14509;47.992;7.848;2023-02-01T07:47:22;3.42;;;2.80;;
2438;SDS011;14509;47.992;7.848;2023-02-01T07:49:24;3.50;;;2.70;;
2438;SDS011;14509;47.992;7.848;2023-02-01T07:51:26;3.80;;;2.80;;
2438;SDS011;14509;47.992;7.848;2023-02-01T07:53:29;3.00;;;2.60;;
2438;SDS011;14509;47.992;7.848;2023-02-01T07:55:32;5.20;;;2.90;;
2438;SDS011;14509;47.992;7.848;2023-02-01T07:57:34;3.20;;;2.38;;
2438;SDS011;14509;47.992;7.848;2023-02-01T07:59:38;3.28;;;2.67;;
2438;SDS011;14509;47.992;7.848;2023-02-01T08:02:00;4.03;;;2.73;;
2438;SDS011;14509;47.992;7.848;2023-02-01T08:04:01;4.60;;;2.80;;
2438;SDS011;14509;47.992;7.848;2023-02-01T08:06:04;4.35;;;2.50;;
2438;SDS011;14509;47.992;7.848;2023-02-01T08:08:06;2.70;;;2.40;;
2438;SDS011;14509;47.992;7.848;2023-02-01T08:10:08;3.03;;;2.20;;
2438;SDS011;14509;47.992;7.848;2023-02-01T08:12:11;2.97;;;2.40;;
2438;SDS011;14509;47.992;7.848;2023-02-01T08:14:13;3.80;;;2.20;;
2438;SDS011;14509;47.992;7.848;2023-02-01T08:16:19;5.53;;;2.85;;
2438;SDS011;14509;47.992;7.848;2023-02-01T08:18:22;4.13;;;2.97;;
2438;SDS011;14509;47.992;7.848;2023-02-01T08:20:24;3.53;;;2.55;;
2438;SDS011;14509;47.992;7.848;2023-02-01T08:22:30;4.22;;;2.50;;
2438;SDS011;14509;47.992;7.848;2023-02-01T08:24:32;4.55;;;3.10;;
2438;SDS011;14509;47.992;7.848;2023-02-01T08:26:34;2.83;;;2.20;;
2438;SDS011;14509;47.992;7.848;2023-02-01T08:28:37;3.60;;;2.30;;
2438;SDS011;14509;47.992;7.848;2023-02-01T08:30:39;2.83;;;2.20;;
2438;SDS011;14509;47.992;7.848;2023-02-01T08:32:43;3.00;;;2.30;;
2438;SDS011;14509;47.992;7.848;2023-02-01T08:34:45;2.35;;;2.10;;
2438;SDS011;14509;47.992;7.848;2023-02-01T08:36:48;5.50;;;2.00;;
2438;SDS011;14509;47.992;7.848;2023-02-01T08:38:58;3.17;;;2.47;;
2438;SDS011;14509;47.992;7.848;2023-02-01T08:41:03;2.80;;;1.80;;
2438;SDS011;14509;47.992;7.848;2023-02-01T08:43:06;2.60;;;2.10;;
2438;SDS011;14509;47.992;7.848;2023-02-01T08:45:09;2.88;;;1.90;;
2438;SDS011;14509;47.992;7.848;2023-02-01T08:47:11;2.13;;;1.70;;
2438;SDS011;14509;47.992;7.848;2023-02-01T08:49:15;4.10;;;2.00;;
2438;SDS011;14509;47.992;7.848;2023-02-01T08:51:18;2.08;;;1.85;;
2438;SDS011;14509;47.992;7.848;2023-02-01T08:53:22;3.08;;;1.70;;
2438;SDS011;14509;47.992;7.848;2023-02-01T08:55:24;2.35;;;1.75;;
2438;SDS011;14509;47.992;7.848;2023-02-01T08:57:26;3.70;;;2.00;;
2438;SDS011;14509;47.992;7.848;2023-02-01T08:59:28;2.33;;;1.90;;
2438;SDS011;14509;47.992;7.848;2023-02-01T09:01:30;3.00;;;1.83;;
2438;SDS011;14509;47.992;7.848;2023-02-01T09:03:32;2.58;;;2.30;;
2438;SDS011;14509;47.992;7.848;2023-02-01T09:05:36;3.60;;;2.03;;
2438;SDS011;14509;47.992;7.848;2023-02-01T09:07:38;2.88;;;1.80;;
2438;SDS011;14509;47.992;7.848;2023-02-01T09:09:40;2.95;;;1.98;;
2438;SDS011;14509;47.992;7.848;2023-02-01T09:11:42;1.60;;;1.50;;
2438;SDS011;14509;47.992;7.848;2023-02-01T09:13:44;2.70;;;1.80;;
2438;SDS011;14509;47.992;7.848;2023-02-01T09:15:50;1.73;;;1.63;;
2438;SDS011;14509;47.992;7.848;2023-02-01T09:17:51;4.78;;;1.90;;
2438;SDS011;14509;47.992;7.848;2023-02-01T09:19:53;2.90;;;1.75;;
2438;SDS011;14509;47.992;7.848;2023-02-01T09:21:57;3.23;;;2.03;;
2438;SDS011;14509;47.992;7.848;2023-02-01T09:23:59;2.35;;;2.10;;
2438;SDS011;14509;47.992;7.848;2023-02-01T09:26:01;2.47;;;2.10;;
2438;SDS011;14509;47.992;7.848;2023-02-01T09:28:05;2.90;;;2.30;;
2438;SDS011;14509;47.992;7.848;2023-02-01T09:30:09;4.03;;;2.53;;
2438;SDS011;14509;47.992;7.848;2023-02-01T09:32:12;2.67;;;2.45;;
2438;SDS011;14509;47.992;7.848;2023-02-01T09:34:14;4.20;;;2.30;;
2438;SDS011;14509;47.992;7.848;2023-02-01T09:36:15;4.00;;;2.70;;
2438;SDS011;14509;47.992;7.848;2023-02-01T09:38:21;3.85;;;2.47;;
2438;SDS011;14509;47.992;7.848;2023-02-01T09:40:23;3.47;;;2.67;;
2438;SDS011;14509;47.992;7.848;2023-02-01T09:42:29;4.43;;;2.65;;
2438;SDS011;14509;47.992;7.848;2023-02-01T09:45:02;4.07;;;2.90;;
2438;SDS011;14509;47.992;7.848;2023-02-01T09:47:16;3.97;;;3.33;;
2438;SDS011;14509;47.992;7.848;2023-02-01T09:49:22;3.30;;;3.00;;
2438;SDS011;14509;47.992;7.848;2023-02-01T09:51:29;5.28;;;2.70;;
2438;SDS011;14509;47.992;7.848;2023-02-01T09:53:36;3.10;;;2.78;;
2438;SDS011;14509;47.992;7.848;2023-02-01T09:55:42;5.45;;;3.25;;
2438;SDS011;14509;47.992;7.848;2023-02-01T09:57:49;3.55;;;3.20;;
2438;SDS011;14509;47.992;7.848;2023-02-01T09:59:57;6.23;;;3.13;;
2438;SDS011;14509;47.992;7.848;2023-02-01T10:02:13;5.70;;;3.00;;
2438;SDS011;14509;47.992;7.848;2023-02-01T10:04:18;5.30;;;3.17;;
2438;SDS011;14509;47.992;7.848;2023-02-01T10:06:24;4.20;;;3.80;;
2438;SDS011;14509;47.992;7.848;2023-02-01T10:08:40;3.90;;;2.80;;
2438;SDS011;14509;47.992;7.848;2023-02-01T10:10:57;3.13;;;2.78;;
2438;SDS011;14509;47.992;7.848;2023-02-01T10:13:14;5.38;;;3.30;;
2438;SDS011;14509;47.992;7.848;2023-02-01T10:15:32;4.90;;;3.28;;
2438;SDS011;14509;47.992;7.848;2023-02-01T10:17:48;4.90;;;3.80;;
2438;SDS011;14509;47.992;7.848;2023-02-01T10:20:01;8.70;;;3.30;;
2438;SDS011;14509;47.992;7.848;2023-02-01T10:22:10;4.95;;;3.40;;
2438;SDS011;14509;47.992;7.848;2023-02-01T10:26:55;4.70;;;3.50;;
2438;SDS011;14509;47.992;7.848;2023-02-01T10:29:03;5.18;;;3.42;;
2438;SDS011;14509;47.992;7.848;2023-02-01T10:31:13;4.82;;;3.50;;
2438;SDS011;14509;47.992;7.848;2023-02-01T10:33:16;5.10;;;3.40;;
2438;SDS011;14509;47.992;7.848;2023-02-01T10:35:21;6.43;;;3.90;;
2438;SDS011;14509;47.992;7.848;2023-02-01T10:37:28;5.32;;;3.50;;
2438;SDS011;14509;47.992;7.848;2023-02-01T10:39:31;4.20;;;3.42;;
2438;SDS011;14509;47.992;7.848;2023-02-01T10:41:35;6.45;;;3.60;;
2438;SDS011;14509;47.992;7.848;2023-02-01T10:43:40;4.70;;;3.42;;
2438;SDS011;14509;47.992;7.848;2023-02-01T10:45:42;7.70;;;3.90;;
2438;SDS011;14509;47.992;7.848;2023-02-01T10:47:45;5.22;;;3.30;;
2438;SDS011;14509;47.992;7.848;2023-02-01T10:49:50;5.53;;;3.80;;
2438;SDS011;14509;47.992;7.848;2023-02-01T10:56:27;5.55;;;3.47;;
2438;SDS011;14509;47.992;7.848;2023-02-01T10:58:33;3.63;;;3.00;;
2438;SDS011;14509;47.992;7.848;2023-02-01T11:00:44;4.80;;;3.10;;
2438;SDS011;14509;47.992;7.848;2023-02-01T11:02:49;5.82;;;3.60;;
2438;SDS011;14509;47.992;7.848;2023-02-01T11:04:57;8.10;;;4.68;;
2438;SDS011;14509;47.992;7.848;2023-02-01T11:07:06;5.43;;;3.67;;
2438;SDS011;14509;47.992;7.848;2023-02-01T11:09:16;4.35;;;3.30;;
2438;SDS011;14509;47.992;7.848;2023-02-01T11:11:22;4.17;;;3.20;;
2438;SDS011;14509;47.992;7.848;2023-02-01T11:13:27;3.40;;;3.10;;
2438;SDS011;14509;47.992;7.848;2023-02-01T11:15:32;7.93;;;3.47;;
2438;SDS011;14509;47.992;7.848;2023-02-01T11:17:35;6.50;;;3.20;;
2438;SDS011;14509;47.992;7.848;2023-02-01T11:19:43;5.43;;;3.23;;
2438;SDS011;14509;47.992;7.848;2023-02-01T11:21:48;4.47;;;3.30;;
2438;SDS011;14509;47.992;7.848;2023-02-01T11:23:52;6.83;;;4.10;;
2438;SDS011;14509;47.992;7.848;2023-02-01T11:25:54;4.50;;;3.50;;
2438;SDS011;14509;47.992;7.848;2023-02-01T12:55:15;10.60;;;4.60;;
2438;SDS011;14509;47.992;7.848;2023-02-01T12:57:23;8.20;;;3.63;;
2438;SDS011;14509;47.992;7.848;2023-02-01T12:59:30;5.30;;;3.03;;
2438;SDS011;14509;47.992;7.848;2023-02-01T13:01:36;4.53;;;3.27;;
2438;SDS011;14509;47.992;7.848;2023-02-01T13:03:42;5.77;;;2.73;;
2438;SDS011;14509;47.992;7.848;2023-02-01T13:05:55;5.80;;;4.00;;
2438;SDS011;14509;47.992;7.848;2023-02-01T13:08:05;3.63;;;2.90;;
2438;SDS011;14509;47.992;7.848;2023-02-01T13:10:12;3.33;;;3.03;;
2438;SDS011;14509;47.992;7.848;2023-02-01T13:12:18;4.90;;;2.83;;
2438;SDS011;14509;47.992;7.848;2023-02-01T13:14:26;8.87;;;3.30;;
2438;SDS011;14509;47.992;7.848;2023-02-01T13:16:32;8.77;;;3.30;;
2438;SDS011;14509;47.992;7.848;2023-02-01T13:18:39;12.63;;;3.13;;
2438;SDS011;14509;47.992;7.848;2023-02-01T13:20:47;4.93;;;2.40;;
2438;SDS011;14509;47.992;7.848;2023-02-01T13:22:54;6.17;;;2.60;;
2438;SDS011;14509;47.992;7.848;2023-02-01T13:25:01;6.87;;;3.17;;
2438;SDS011;14509;47.992;7.848;2023-02-01T13:27:05;7.47;;;2.60;;
2438;SDS011;14509;47.992;7.848;2023-02-01T13:29:12;8.90;;;3.20;;
2438;SDS011;14509;47.992;7.848;2023-02-01T13:31:27;4.30;;;2.73;;
2438;SDS011;14509;47.992;7.848;2023-02-01T13:33:52;4.30;;;3.03;;
2438;SDS011;14509;47.992;7.848;2023-02-01T13:36:41;3.00;;;2.70;;
2438;SDS011;14509;47.992;7.848;2023-02-01T13:41:27;7.10;;;3.13;;
2438;SDS011;14509;47.992;7.848;2023-02-01T13:43:30;12.00;;;4.17;;
2438;SDS011;14509;47.992;7.848;2023-02-01T13:45:34;10.87;;;3.27;;
2438;SDS011;14509;47.992;7.848;2023-02-01T13:47:43;7.30;;;3.47;;
2438;SDS011;14509;47.992;7.848;2023-02-01T13:49:49;7.30;;;3.27;;
2438;SDS011;14509;47.992;7.848;2023-02-01T13:51:54;9.57;;;3.20;;
2438;SDS011;14509;47.992;7.848;2023-02-01T13:53:58;8.23;;;3.97;;
2438;SDS011;14509;47.992;7.848;2023-02-01T13:56:01;3.23;;;2.63;;
2438;SDS011;14509;47.992;7.848;2023-02-01T13:58:13;5.80;;;2.90;;
2438;SDS011;14509;47.992;7.848;2023-02-01T14:00:23;5.65;;;3.33;;
2438;SDS011;14509;47.992;7.848;2023-02-01T14:05:08;4.47;;;3.27;;
2438;SDS011;14509;47.992;7.848;2023-02-01T14:07:17;7.93;;;3.13;;
2438;SDS011;14509;47.992;7.848;2023-02-01T14:11:40;6.97;;;2.43;;
2438;SDS011;14509;47.992;7.848;2023-02-01T14:13:45;3.77;;;2.30;;
2438;SDS011;14509;47.992;7.848;2023-02-01T14:15:53;12.20;;;3.70;;
2438;SDS011;14509;47.992;7.848;2023-02-01T14:20:48;6.80;;;4.50;;
2438;SDS011;14509;47.992;7.848;2023-02-01T14:22:51;4.27;;;2.70;;
2438;SDS011;14509;47.992;7.848;2023-02-01T14:25:02;4.30;;;3.13;;
2438;SDS011;14509;47.992;7.848;2023-02-01T14:27:18;9.67;;;3.43;;
2438;SDS011;14509;47.992;7.848;2023-02-01T14:29:25;5.73;;;2.93;;
2438;SDS011;14509;47.992;7.848;2023-02-01T14:31:33;10.03;;;3.10;;
2438;SDS011;14509;47.992;7.848;2023-02-01T14:33:41;5.87;;;3.00;;
2438;SDS011;14509;47.992;7.848;2023-02-01T14:35:44;5.10;;;2.40;;
2438;SDS011;14509;47.992;7.848;2023-02-01T14:38:00;5.13;;;3.10;;